Time;durP1;ratioP1;P1;durP2;ratioP2;P2;SDS_P1;SDS_P2;PMS_P1;PMS_P2;Temp;Humidity;BMP_temperature;BMP_pressure;BME280_temperature;BME280_humidity;BME280_pressure;Samples;Min_cycle;Max_cycle;Signal;HPM_P1;HPM_P2
2022/06/20 00:01:25;;;;;;;5.80;4.50;;;;;;;14.17;74.76;97319.45;109990;1250;71469;-77
2022/06/20 00:03:55;;;;;;;5.50;5.00;;;;;;;14.14;74.79;97316.38;110163;1247;68521;-72
2022/06/20 00:06:26;;;;;;;6.10;4.60;;;;;;;14.11;74.62;97316.45;109910;1250;69393;-73
2022/06/20 00:08:56;;;;;;;5.10;4.60;;;;;;;14.07;73.05;97312.63;110164;1250;59660;-68
2022/06/20 00:11:36;;;;;;;4.20;3.80;;;;;;;14.02;71.05;97305.90;110156;1250;59763;-76
2022/06/20 00:14:10;;;;;;;5.60;5.00;;;;;;;13.97;73.48;97305.65;110209;1248;70587;-74
2022/06/20 00:16:41;;;;;;;6.80;5.10;;;;;;;13.93;73.55;97309.27;110230;1248;66759;-72
2022/06/20 00:19:11;;;;;;;5.30;4.80;;;;;;;13.91;74.67;97306.01;110114;1248;69285;-74
2022/06/20 00:21:41;;;;;;;5.60;5.00;;;;;;;13.89;75.91;97303.36;109954;1249;59756;-75
2022/06/20 00:24:11;;;;;;;;;;;;;;;13.88;75.94;97298.58;110046;1248;59758;-70
2022/06/20 00:26:42;;;;;;;5.10;4.50;;;;;;;13.86;76.17;97300.44;110187;1247;69736;-77
2022/06/20 00:29:13;;;;;;;6.30;5.20;;;;;;;13.85;76.17;97293.70;109931;1248;67962;-75
2022/06/20 00:31:43;;;;;;;5.20;4.70;;;;;;;13.79;75.95;97295.85;110180;1249;69435;-75
2022/06/20 00:34:13;;;;;;;5.60;4.10;;;;;;;13.73;74.64;97295.48;109912;1247;59797;-72
2022/06/20 00:36:44;;;;;;;6.00;4.70;;;;;;;13.67;76.14;97298.75;110021;1250;59790;-78
2022/06/20 00:39:14;;;;;;;5.40;4.20;;;;;;;13.62;76.33;97299.95;110216;1248;70766;-68
2022/06/20 00:41:44;;;;;;;4.90;4.40;;;;;;;13.56;76.05;97303.41;110204;1248;68583;-77
2022/06/20 00:44:24;;;;;;;5.50;4.80;;;;;;;13.49;77.13;97302.47;110186;1250;69216;-76
2022/06/20 00:47:02;;;;;;;5.10;4.60;;;;;;;13.41;77.11;97298.77;110187;1250;59709;-68
2022/06/20 00:49:42;;;;;;;5.50;5.00;;;;;;;13.33;76.80;97294.02;110188;1248;59744;-70
2022/06/20 00:52:22;;;;;;;5.10;4.50;;;;;;;13.29;77.91;97294.90;110180;1250;70649;-76
2022/06/20 00:55:05;;;;;;;5.20;4.60;;;;;;;13.26;75.57;97294.11;110192;1248;68472;-78
2022/06/20 00:57:42;;;;;;;4.70;4.30;;;;;;;13.23;75.63;97290.52;110188;1248;67467;-75
2022/06/20 01:00:23;;;;;;;5.10;4.50;;;;;;;13.18;75.84;97288.80;110139;1250;59690;-68
2022/06/20 01:03:33;;;;;;;5.10;4.50;;;;;;;13.13;78.75;97289.93;109942;1250;59627;-77
2022/06/20 01:06:10;;;;;;;;;;;;;;;13.07;79.35;97281.72;110083;1248;71497;-71
2022/06/20 01:08:51;;;;;;;5.70;5.10;;;;;;;13.01;79.70;97281.88;110230;1247;67900;-76
2022/06/20 01:11:27;;;;;;;6.60;4.80;;;;;;;12.99;79.69;97283.41;109767;1253;69320;-75
2022/06/20 01:13:58;;;;;;;6.00;4.90;;;;;;;12.97;80.12;97280.64;110184;1247;59761;-76
2022/06/20 01:16:32;;;;;;;5.90;5.30;;;;;;;12.96;79.98;97284.04;109954;1250;59720;-77
2022/06/20 01:19:10;;;;;;;5.20;4.60;;;;;;;12.94;80.32;97280.70;110168;1248;71577;-79
2022/06/20 01:21:40;;;;;;;5.10;4.60;;;;;;;12.93;80.27;97284.25;110208;1248;68084;-77
2022/06/20 01:24:13;;;;;;;5.60;5.00;;;;;;;12.93;80.58;97287.23;110035;1250;68613;-68
2022/06/20 01:26:52;;;;;;;6.40;5.40;;;;;;;12.94;81.25;97286.29;110227;1247;59687;-79
2022/06/20 01:29:24;;;;;;;4.40;4.00;;;;;;;12.96;81.33;97288.98;110146;1250;59749;-77
2022/06/20 01:31:56;;;;;;;6.00;5.40;;;;;;;12.95;79.63;97290.08;110221;1248;71587;-78
2022/06/20 01:34:27;;;;;;;7.30;5.40;;;;;;;12.93;80.47;97286.25;110175;1250;68416;-79
2022/06/20 01:39:58;;;;;;;5.80;4.80;;;;;;;12.88;80.58;97288.17;109907;1251;59743;-78
2022/06/20 01:42:29;;;;;;;7.50;6.40;;;;;;;12.89;80.52;97285.15;109927;1250;59792;-77
2022/06/20 01:48:16;;;;;;;5.40;4.60;;;;;;;12.91;80.45;97288.10;110241;1250;68661;-76
2022/06/20 01:50:47;;;;;;;5.30;4.50;;;;;;;12.90;80.04;97283.70;110146;1249;69354;-70
2022/06/20 01:53:22;;;;;;;6.10;3.80;;;;;;;12.86;77.40;97281.58;110061;1249;59730;-79
2022/06/20 01:55:55;;;;;;;7.10;5.20;;;;;;;12.82;77.97;97282.77;109997;1250;59676;-77
2022/06/20 01:58:32;;;;;;;5.50;5.00;;;;;;;12.76;79.14;97281.86;110193;1250;70725;-78
2022/06/20 02:01:05;;;;;;;5.40;4.80;;;;;;;12.70;80.46;97288.98;110184;1248;67506;-78
2022/06/20 02:03:42;;;;;;;4.60;4.20;;;;;;;12.65;79.55;97287.65;110242;1248;67847;-76
2022/06/20 02:06:19;;;;;;;5.20;4.70;;;;;;;12.61;77.71;97288.75;110257;1248;59697;-78
2022/06/20 02:08:55;;;;;;;7.80;7.00;;;;;;;12.57;80.45;97289.40;110193;1250;60127;-79
2022/06/20 02:11:27;;;;;;;8.40;6.50;;;;;;;12.55;82.84;97287.34;110256;1248;70727;-76
2022/06/20 02:14:04;;;;;;;6.20;5.30;;;;;;;12.50;81.97;97287.72;110213;1248;67412;-77
2022/06/20 02:16:38;;;;;;;6.10;5.50;;;;;;;12.46;81.90;97288.39;109959;1251;69087;-77
2022/06/20 02:19:14;;;;;;;6.50;5.60;;;;;;;12.42;81.77;97285.20;110018;1251;59728;-76
2022/06/20 02:21:46;;;;;;;7.00;6.30;;;;;;;12.40;83.39;97289.37;110212;1248;59689;-78
2022/06/20 02:24:20;;;;;;;6.60;5.80;;;;;;;12.39;83.93;97284.40;110192;1250;70952;-78
2022/06/20 02:26:56;;;;;;;6.50;5.50;;;;;;;12.39;82.24;97282.52;110212;1250;68327;-77
2022/06/20 02:29:26;;;;;;;7.60;5.90;;;;;;;12.39;83.51;97283.23;109930;1250;68640;-78
2022/06/20 02:32:04;;;;;;;6.80;5.90;;;;;;;12.37;83.59;97285.77;109981;1248;59621;-77
2022/06/20 02:34:35;;;;;;;7.70;5.90;;;;;;;12.36;83.81;97286.43;110176;1248;59635;-73
2022/06/20 02:37:10;;;;;;;6.70;5.60;;;;;;;12.35;83.50;97280.69;110077;1251;71528;-76
2022/06/20 02:39:43;;;;;;;6.70;5.00;;;;;;;12.35;82.50;97283.02;109969;1250;68607;-72
2022/06/20 02:42:39;;;;;;;6.90;6.00;;;;;;;12.35;82.93;97282.50;110208;1248;69513;-74
2022/06/20 02:45:12;;;;;;;6.60;5.70;;;;;;;12.35;83.43;97282.67;109772;1251;59748;-79
2022/06/20 02:47:46;;;;;;;6.00;5.40;;;;;;;12.35;83.97;97276.71;109881;1251;59676;-73
2022/06/20 02:50:23;;;;;;;6.80;5.10;;;;;;;12.36;83.00;97279.95;110234;1248;70762;-67
2022/06/20 02:53:14;;;;;;;6.80;5.80;;;;;;;12.33;83.25;97280.86;110199;1248;67727;-79
2022/06/20 02:55:46;;;;;;;7.40;6.10;;;;;;;12.30;82.82;97283.23;110115;1247;69403;-77
2022/06/20 02:58:22;;;;;;;5.70;5.00;;;;;;;12.27;82.54;97283.17;110263;1247;60093;-77
2022/06/20 03:01:03;;;;;;;6.30;5.40;;;;;;;12.24;82.63;97281.81;110174;1250;59674;-78
2022/06/20 03:03:38;;;;;;;6.70;5.90;;;;;;;12.20;82.62;97275.48;110124;1248;71353;-75
2022/06/20 03:06:12;;;;;;;6.10;5.20;;;;;;;12.18;81.66;97267.94;109995;1248;68586;-74
2022/06/20 03:08:44;;;;;;;8.40;6.30;;;;;;;12.15;82.92;97266.80;110239;1247;69422;-76
2022/06/20 03:11:13;;;;;;;;;;;;;;;12.16;83.32;97269.17;110216;1248;59674;-74
2022/06/20 03:13:43;;;;;;;6.00;5.50;;;;;;;12.16;83.59;97270.90;110192;1248;59682;-78
2022/06/20 03:16:14;;;;;;;5.80;4.90;;;;;;;12.19;83.89;97269.43;109900;1251;70770;-77
2022/06/20 03:18:51;;;;;;;6.40;5.70;;;;;;;12.23;83.73;97277.48;110381;1250;68555;-75
2022/06/20 03:21:32;;;;;;;8.20;5.80;;;;;;;12.25;83.79;97272.10;109979;1248;68658;-75
2022/06/20 03:24:08;;;;;;;6.00;5.20;;;;;;;12.27;83.58;97271.42;110269;1247;59712;-80
2022/06/20 03:26:51;;;;;;;6.90;6.10;;;;;;;12.31;84.36;97269.90;109797;1248;59709;-80
2022/06/20 03:29:28;;;;;;;6.60;5.40;;;;;;;12.36;84.21;97267.89;109857;1250;72035;-76
2022/06/20 03:32:09;;;;;;;6.20;5.20;;;;;;;12.44;83.45;97266.69;109839;1251;68735;-79
2022/06/20 03:34:44;;;;;;;6.90;5.80;;;;;;;12.52;82.65;97268.13;109976;1252;68631;-79
2022/06/20 03:37:23;;;;;;;6.90;5.10;;;;;;;12.59;81.99;97265.60;109691;1251;59751;-75
2022/06/20 03:40:48;;;;;;;7.70;6.80;;;;;;;12.67;82.71;97270.40;110015;1250;59737;-77
2022/06/20 03:43:27;;;;;;;9.50;6.30;;;;;;;12.72;82.91;97266.57;109803;1251;70648;-77
2022/06/20 03:46:19;;;;;;;7.70;6.90;;;;;;;12.80;82.73;97263.86;109853;1250;68432;-78
2022/06/20 03:49:07;;;;;;;8.30;7.10;;;;;;;12.86;82.68;97259.53;109959;1251;68651;-76
2022/06/20 03:51:44;;;;;;;7.80;6.20;;;;;;;12.93;82.53;97257.51;110049;1251;59677;-78
2022/06/20 03:54:38;;;;;;;8.00;6.20;;;;;;;13.03;81.55;97256.32;109963;1251;59721;-78
2022/06/20 03:57:21;;;;;;;5.90;5.40;;;;;;;13.15;80.52;97261.06;109918;1251;71574;-77
2022/06/20 04:00:11;;;;;;;9.00;5.80;;;;;;;13.25;80.49;97257.22;109996;1250;68418;-79
2022/06/20 04:02:44;;;;;;;6.90;6.10;;;;;;;13.34;80.52;97257.37;109953;1251;69511;-76
2022/06/20 04:05:20;;;;;;;8.00;6.40;;;;;;;13.40;80.53;97254.34;109967;1251;59701;-77
2022/06/20 04:07:59;;;;;;;7.80;6.80;;;;;;;13.50;80.38;97257.23;109866;1251;59685;-74
2022/06/20 04:11:20;;;;;;;6.00;5.40;;;;;;;13.60;79.85;97254.77;110031;1251;71609;-80
2022/06/20 04:13:28;;;;;;;6.50;5.80;;;;;;;13.72;79.03;97251.23;109782;1251;67834;-78
2022/06/20 04:16:23;;;;;;;6.40;5.80;;;;;;;13.83;79.20;97254.83;109979;1251;68666;-78
2022/06/20 04:19:33;;;;;;;6.10;5.40;;;;;;;13.97;78.76;97250.98;109866;1251;59682;-77
2022/06/20 04:22:15;;;;;;;6.70;5.60;;;;;;;14.13;78.42;97255.63;110174;1250;59670;-74
2022/06/20 04:24:53;;;;;;;7.10;6.30;;;;;;;14.27;77.75;97252.68;110051;1250;70879;-79
2022/06/20 04:27:41;;;;;;;7.60;6.00;;;;;;;14.40;78.14;97246.09;110100;1250;68529;-79
2022/06/20 04:30:27;;;;;;;7.30;6.10;;;;;;;14.56;77.57;97247.98;109974;1251;68825;-78
2022/06/20 04:33:20;;;;;;;7.40;6.00;;;;;;;14.72;77.12;97243.32;109923;1250;59720;-78
2022/06/20 04:36:05;;;;;;;;;;;;;;;14.91;76.42;97242.09;109731;1252;59759;-78
2022/06/20 04:38:42;;;;;;;6.60;5.50;;;;;;;15.06;76.11;97241.34;109772;1251;71592;-75
2022/06/20 04:41:23;;;;;;;8.20;6.70;;;;;;;15.23;75.40;97242.78;109757;1251;68717;-77
2022/06/20 04:44:01;;;;;;;8.20;6.90;;;;;;;15.38;74.72;97243.31;109896;1251;69471;-79
2022/06/20 04:46:46;;;;;;;7.30;5.70;;;;;;;15.53;74.61;97240.46;109980;1251;59665;-74
2022/06/20 04:49:17;;;;;;;8.20;5.40;;;;;;;15.70;73.51;97238.32;109932;1251;59683;-76
2022/06/20 04:51:49;;;;;;;7.60;5.90;;;;;;;15.85;72.45;97242.89;109791;1251;71711;-77
2022/06/20 04:54:21;;;;;;;7.20;5.60;;;;;;;15.99;72.52;97240.75;109907;1250;67789;-71
2022/06/20 04:56:54;;;;;;;7.20;5.50;;;;;;;16.13;72.52;97243.08;109786;1251;68625;-75
2022/06/20 04:59:29;;;;;;;5.60;4.90;;;;;;;16.30;72.39;97242.98;110176;1250;59702;-77
2022/06/20 05:02:02;;;;;;;6.00;4.80;;;;;;;16.49;71.86;97245.82;110104;1250;59711;-77
2022/06/20 05:04:39;;;;;;;4.80;4.30;;;;;;;16.73;72.20;97241.00;110126;1250;70763;-76
2022/06/20 05:07:23;;;;;;;4.90;4.40;;;;;;;17.04;72.04;97242.78;110092;1250;68452;-66
2022/06/20 05:10:20;;;;;;;4.80;4.40;;;;;;;17.46;72.03;97239.72;109917;1251;68686;-78
2022/06/20 05:12:57;;;;;;;5.20;4.70;;;;;;;17.96;71.51;97234.88;110015;1250;59757;-70
2022/06/20 05:15:43;;;;;;;4.30;3.40;;;;;;;18.47;70.77;97236.83;110212;1249;59647;-71
2022/06/20 05:18:36;;;;;;;5.50;4.40;;;;;;;19.06;69.41;97236.64;109903;1251;71445;-78
2022/06/20 05:21:36;;;;;;;5.80;4.70;;;;;;;19.43;63.12;97233.20;109938;1250;68668;-76
2022/06/20 05:24:14;;;;;;;4.40;3.90;;;;;;;19.68;63.22;97228.44;109958;1250;69648;-77
2022/06/20 05:26:47;;;;;;;4.00;3.60;;;;;;;19.98;61.17;97229.02;109970;1250;59687;-78
2022/06/20 05:29:28;;;;;;;5.30;4.80;;;;;;;20.07;60.27;97225.48;109934;1250;59754;-78
2022/06/20 05:32:02;;;;;;;4.90;4.10;;;;;;;20.08;60.18;97225.99;109975;1251;71574;-78
2022/06/20 05:34:52;;;;;;;5.00;4.50;;;;;;;19.98;58.90;97228.83;110190;1250;67961;-79
2022/06/20 05:37:48;;;;;;;5.00;4.50;;;;;;;19.89;59.33;97226.45;110040;1249;68750;-78
2022/06/20 05:40:26;;;;;;;5.70;4.80;;;;;;;19.87;59.57;97225.98;109949;1250;59758;-77
2022/06/20 05:42:55;;;;;;;5.60;4.60;;;;;;;19.81;58.73;97223.27;109989;1250;59766;-78
2022/06/20 05:45:27;;;;;;;7.40;5.20;;;;;;;19.70;58.86;97222.73;110039;1249;71575;-79
2022/06/20 05:48:00;;;;;;;5.30;3.90;;;;;;;19.64;59.29;97224.35;110244;1250;67808;-76
2022/06/20 05:50:48;;;;;;;6.60;4.60;;;;;;;19.72;58.76;97221.84;110190;1250;69438;-77
2022/06/20 05:53:26;;;;;;;5.20;4.70;;;;;;;19.74;58.63;97220.15;110202;1249;59707;-75
2022/06/20 05:55:58;;;;;;;6.80;4.80;;;;;;;19.86;58.40;97217.05;109974;1250;59728;-75
2022/06/20 05:58:36;;;;;;;5.70;5.10;;;;;;;19.96;58.43;97210.63;110134;1249;70973;-80
2022/06/20 06:01:11;;;;;;;5.70;4.80;;;;;;;20.09;57.39;97210.34;110235;1250;67637;-77
2022/06/20 06:03:59;;;;;;;5.50;4.20;;;;;;;20.19;56.97;97214.48;109803;1251;69472;-75
2022/06/20 06:06:37;;;;;;;5.30;4.70;;;;;;;20.28;56.19;97216.64;110124;1251;59757;-75
2022/06/20 06:09:11;;;;;;;4.80;4.40;;;;;;;20.45;55.69;97222.00;110157;1251;59738;-80
2022/06/20 06:11:54;;;;;;;4.40;4.00;;;;;;;20.54;54.74;97219.66;109965;1250;70844;-80
2022/06/20 06:14:32;;;;;;;5.50;4.80;;;;;;;20.71;54.37;97214.30;110184;1248;68634;-80
2022/06/20 06:17:04;;;;;;;5.00;4.50;;;;;;;20.78;54.06;97211.91;109814;1251;68614;-80
2022/06/20 06:20:10;;;;;;;5.60;5.00;;;;;;;20.91;53.72;97211.42;109968;1251;59688;-78
2022/06/20 06:22:44;;;;;;;5.00;4.50;;;;;;;21.06;53.65;97210.61;109846;1250;59760;-75
2022/06/20 06:25:29;;;;;;;4.50;4.10;;;;;;;21.28;53.90;97210.08;110059;1250;70794;-74
2022/06/20 06:28:06;;;;;;;4.70;4.30;;;;;;;21.61;52.12;97198.45;109919;1251;68616;-82
2022/06/20 06:30:58;;;;;;;4.90;4.20;;;;;;;21.86;51.53;97201.16;109951;1251;69278;-77
2022/06/20 06:33:37;;;;;;;5.00;4.50;;;;;;;22.07;50.98;97199.09;110012;1250;59764;-77
2022/06/20 06:36:43;;;;;;;4.90;4.40;;;;;;;22.49;50.35;97197.75;109907;1251;59685;-75
2022/06/20 06:39:36;;;;;;;4.60;4.20;;;;;;;22.76;48.63;97195.23;109843;1251;71829;-76
2022/06/20 06:42:16;;;;;;;4.60;4.20;;;;;;;23.23;48.32;97195.13;110027;1251;68776;-79
2022/06/20 06:44:51;;;;;;;4.40;4.00;;;;;;;23.43;47.38;97193.09;109874;1251;70120;-79
2022/06/20 06:47:38;;;;;;;5.10;4.00;;;;;;;23.79;47.07;97192.20;109836;1250;59768;-72
2022/06/20 06:50:33;;;;;;;4.60;4.20;;;;;;;23.76;45.96;97188.66;109956;1251;59710;-69
2022/06/20 06:53:33;;;;;;;6.10;4.70;;;;;;;23.88;45.66;97184.92;109962;1251;72167;-77
2022/06/20 06:56:32;;;;;;;9.30;4.50;;;;;;;24.16;45.04;97184.16;109691;1254;69220;-79
2022/06/20 06:59:20;;;;;;;4.50;4.10;;;;;;;24.48;43.93;97187.02;109911;1251;69574;-77
2022/06/20 07:01:53;;;;;;;4.60;4.20;;;;;;;24.84;43.89;97188.00;109862;1250;59763;-77
2022/06/20 07:04:34;;;;;;;4.30;3.90;;;;;;;25.22;42.75;97183.40;110147;1249;59664;-80
2022/06/20 07:07:14;;;;;;;4.90;3.80;;;;;;;25.40;42.30;97184.80;109958;1251;71624;-72
2022/06/20 07:09:54;;;;;;;4.90;4.40;;;;;;;25.45;41.18;97179.99;109907;1251;68676;-80
2022/06/20 07:12:48;;;;;;;4.40;4.00;;;;;;;25.42;42.44;97175.57;110045;1250;69417;-79
2022/06/20 07:15:23;;;;;;;5.10;3.30;;;;;;;25.50;41.54;97171.79;109934;1250;59786;-73
2022/06/20 07:17:58;;;;;;;5.40;4.50;;;;;;;25.73;41.70;97165.73;110069;1250;59693;-77
2022/06/20 07:20:33;;;;;;;4.80;4.20;;;;;;;25.76;41.90;97169.67;109943;1250;71507;-80
2022/06/20 07:23:09;;;;;;;6.80;4.00;;;;;;;25.95;41.91;97176.55;109960;1250;68767;-77
2022/06/20 07:25:42;;;;;;;5.50;3.90;;;;;;;26.21;41.50;97166.62;109896;1250;70143;-73
2022/06/20 07:28:29;;;;;;;4.50;3.60;;;;;;;26.45;40.38;97170.30;109450;1249;584452;-78
2022/06/20 07:31:10;;;;;;;4.90;4.30;;;;;;;26.66;39.07;97171.76;110062;1249;59757;-80
2022/06/20 07:33:51;;;;;;;5.00;3.60;;;;;;;27.00;38.81;97175.03;109864;1251;71847;-73
2022/06/20 07:36:25;;;;;;;4.50;3.70;;;;;;;27.24;38.06;97176.23;109895;1251;68803;-80
2022/06/20 07:39:06;;;;;;;3.50;3.20;;;;;;;27.45;37.60;97174.13;110037;1250;68644;-75
2022/06/20 07:41:43;;;;;;;4.90;3.60;;;;;;;27.85;37.98;97179.52;109814;1251;59825;-80
2022/06/20 07:44:38;;;;;;;4.80;3.50;;;;;;;28.22;36.60;97176.45;109861;1251;59709;-81
2022/06/20 07:47:14;;;;;;;4.10;3.40;;;;;;;28.50;35.86;97175.82;110001;1250;71674;-77
2022/06/20 07:49:49;;;;;;;5.90;4.40;;;;;;;28.45;35.73;97174.83;110088;1250;68614;-79
2022/06/20 07:52:39;;;;;;;5.70;4.10;;;;;;;28.18;36.46;97174.23;109950;1251;68655;-79
2022/06/20 07:55:14;;;;;;;4.80;4.00;;;;;;;28.16;36.79;97174.13;109866;1249;59688;-81
2022/06/20 07:57:58;;;;;;;5.20;4.40;;;;;;;27.71;36.96;97172.30;110008;1250;59622;-80
2022/06/20 08:00:35;;;;;;;5.40;4.90;;;;;;;27.62;37.52;97167.55;109997;1250;69609;-79
2022/06/20 08:03:10;;;;;;;4.50;4.10;;;;;;;27.06;38.03;97167.34;109915;1251;67913;-80
2022/06/20 08:05:48;;;;;;;4.70;4.20;;;;;;;27.25;37.95;97168.36;109845;1251;68664;-80
2022/06/20 08:08:27;;;;;;;6.30;4.90;;;;;;;27.40;37.61;97163.11;109680;1251;60140;-78
2022/06/20 08:11:10;;;;;;;6.70;5.40;;;;;;;27.27;37.72;97159.19;109971;1250;59694;-80
2022/06/20 08:13:48;;;;;;;8.60;7.70;;;;;;;27.58;37.12;97152.95;109894;1249;71600;-81
2022/06/20 08:16:25;;;;;;;5.80;4.80;;;;;;;27.43;37.57;97152.67;110102;1250;68590;-80
2022/06/20 08:18:54;;;;;;;5.60;4.50;;;;;;;28.36;36.07;97154.45;110112;1250;70218;-80
2022/06/20 08:21:36;;;;;;;8.90;6.30;;;;;;;29.08;35.04;97160.05;110015;1248;59760;-82
2022/06/20 08:24:17;;;;;;;6.20;5.60;;;;;;;28.99;34.60;97154.79;109999;1250;59684;-81
2022/06/20 08:27:13;;;;;;;7.00;5.70;;;;;;;29.20;34.24;97151.81;110190;1248;70768;-75
2022/06/20 08:29:49;;;;;;;9.00;7.90;;;;;;;28.80;33.59;97150.61;109916;1251;68653;-73
2022/06/20 08:32:52;;;;;;;9.00;8.00;;;;;;;28.35;34.52;97146.26;109827;1250;67776;-80
2022/06/20 08:35:33;;;;;;;7.60;6.30;;;;;;;27.90;34.49;97146.64;110071;1248;60185;-76
2022/06/20 08:38:29;;;;;;;5.70;3.90;;;;;;;28.12;34.09;97150.21;109753;1251;59725;-79
2022/06/20 08:41:05;;;;;;;8.50;7.70;;;;;;;28.99;33.02;97156.82;110159;1249;71579;-79
2022/06/20 08:43:50;;;;;;;8.70;7.30;;;;;;;29.31;32.96;97157.71;109898;1250;68650;-72
2022/06/20 08:46:37;;;;;;;6.90;6.10;;;;;;;29.56;32.21;97154.52;109986;1250;68905;-81
2022/06/20 08:49:22;;;;;;;7.30;6.50;;;;;;;29.55;32.39;97150.30;110012;1250;59748;-72
2022/06/20 08:52:10;;;;;;;5.70;5.10;;;;;;;29.27;30.88;97151.45;110160;1248;59755;-80
2022/06/20 08:55:14;;;;;;;6.30;3.90;;;;;;;28.96;31.99;97143.89;109985;1250;72197;-77
2022/06/20 08:58:03;;;;;;;5.10;4.40;;;;;;;28.87;31.99;97146.04;109397;1255;67914;-83
2022/06/20 09:01:02;;;;;;;4.10;3.70;;;;;;;28.53;32.46;97137.03;110043;1249;69611;-82
2022/06/20 09:03:45;;;;;;;3.90;3.30;;;;;;;28.64;32.97;97129.54;109949;1250;59745;-83
2022/06/20 09:06:37;;;;;;;3.80;3.40;;;;;;;29.16;32.45;97126.95;109990;1250;59628;-78
2022/06/20 09:09:44;;;;;;;3.30;3.00;;;;;;;29.32;32.69;97122.51;109880;1250;70807;-80
2022/06/20 09:12:34;;;;;;;3.90;3.50;;;;;;;30.11;32.27;97116.98;110158;1250;68723;-68
2022/06/20 09:15:24;;;;;;;5.20;4.70;;;;;;;30.36;32.10;97113.12;110104;1250;69370;-76
2022/06/20 09:18:13;;;;;;;3.90;3.40;;;;;;;29.59;32.89;97106.71;110034;1249;59764;-70
2022/06/20 09:20:42;;;;;;;4.80;3.60;;;;;;;30.07;32.23;97102.10;110042;1250;59724;-80
2022/06/20 09:23:26;;;;;;;3.80;3.40;;;;;;;30.43;31.91;97100.29;109974;1251;70581;-70
2022/06/20 09:26:09;;;;;;;5.10;4.50;;;;;;;30.53;32.02;97095.97;109894;1250;68539;-77
2022/06/20 09:28:45;;;;;;;4.80;4.30;;;;;;;30.78;31.69;97093.38;110159;1250;69505;-79
2022/06/20 09:31:49;;;;;;;3.40;3.10;;;;;;;31.09;30.92;97094.85;110161;1249;59763;-77
2022/06/20 09:34:40;;;;;;;4.40;3.20;;;;;;;30.54;31.93;97086.54;110070;1248;59637;-82
2022/06/20 09:37:08;;;;;;;3.60;3.30;;;;;;;30.63;31.67;97076.41;109932;1250;69938;-81
2022/06/20 09:39:49;;;;;;;;;;;;;;;31.41;31.26;97073.88;109991;1248;69174;-80
2022/06/20 09:42:45;;;;;;;3.20;2.90;;;;;;;32.07;30.06;97071.11;109908;1250;69468;-79
2022/06/20 09:45:50;;;;;;;4.60;2.70;;;;;;;32.40;27.43;97067.90;109954;1249;59691;-77
2022/06/20 09:48:41;;;;;;;3.50;3.10;;;;;;;32.78;28.41;97066.03;109400;1256;60111;-80
2022/06/20 09:51:22;;;;;;;3.30;2.40;;;;;;;32.92;27.33;97064.61;109325;1257;72301;-76
2022/06/20 09:53:57;;;;;;;4.20;3.00;;;;;;;33.03;27.31;97059.04;109325;1257;68754;-81
2022/06/20 09:56:41;;;;;;;2.60;2.30;;;;;;;32.89;27.54;97055.70;109269;1257;69402;-79
2022/06/20 09:59:25;;;;;;;3.30;2.80;;;;;;;33.03;27.62;97053.05;109419;1256;59692;-79
2022/06/20 10:02:18;;;;;;;2.90;2.50;;;;;;;32.71;26.09;97051.16;109407;1256;59661;-81
2022/06/20 10:04:56;;;;;;;2.80;2.50;;;;;;;32.65;25.50;97049.79;109360;1259;71569;-80
2022/06/20 10:08:18;;;;;;;2.60;2.20;;;;;;;32.70;26.17;97047.65;109357;1256;67922;-75
2022/06/20 10:10:54;;;;;;;3.80;3.00;;;;;;;31.65;26.35;97041.23;108675;1263;69594;-78
2022/06/20 10:13:45;;;;;;;3.50;2.80;;;;;;;31.68;26.85;97034.19;108514;1264;59683;-80
2022/06/20 10:16:41;;;;;;;3.40;2.70;;;;;;;31.36;27.67;97029.80;108719;1263;59797;-78
2022/06/20 10:19:28;;;;;;;3.20;2.60;;;;;;;31.64;28.72;97030.80;108454;1263;71311;-81
2022/06/20 10:22:09;;;;;;;3.80;2.60;;;;;;;31.92;27.75;97031.10;108852;1259;66955;-80
2022/06/20 10:25:06;;;;;;;3.10;2.10;;;;;;;32.08;26.92;97030.26;109461;1255;70057;-79
2022/06/20 10:28:21;;;;;;;2.50;2.10;;;;;;;32.41;26.33;97027.31;109480;1254;59724;-80
2022/06/20 10:31:21;;;;;;;3.00;2.30;;;;;;;31.96;25.23;97019.89;109440;1256;59761;-79
2022/06/20 10:34:06;;;;;;;3.10;2.20;;;;;;;32.28;26.72;97023.00;109347;1256;69801;-74
2022/06/20 10:36:48;;;;;;;3.20;2.80;;;;;;;32.19;26.12;97018.18;109552;1253;67879;-76
2022/06/20 10:39:41;;;;;;;3.40;3.00;;;;;;;32.10;26.11;97014.23;109500;1254;69021;-76
2022/06/20 10:42:32;;;;;;;3.40;2.60;;;;;;;31.71;27.00;97005.05;109468;1256;59889;-76
2022/06/20 10:45:08;;;;;;;3.00;2.70;;;;;;;31.79;27.90;97002.20;109510;1254;59780;-77
2022/06/20 10:47:57;;;;;;;3.10;2.50;;;;;;;31.57;26.41;96999.17;109805;1249;71542;-79
2022/06/20 10:50:46;;;;;;;3.00;2.60;;;;;;;31.75;26.83;96996.13;109925;1250;68588;-79
2022/06/20 10:53:31;;;;;;;4.50;2.70;;;;;;;32.20;26.84;96997.09;110205;1247;68888;-77
2022/06/20 10:56:23;;;;;;;3.20;2.60;;;;;;;32.51;26.91;96989.64;110207;1247;59761;-72
2022/06/20 10:59:38;;;;;;;4.40;2.90;;;;;;;32.64;27.15;96983.33;110246;1247;60128;-80
2022/06/20 11:02:24;;;;;;;3.20;2.60;;;;;;;32.67;26.02;96975.38;110181;1247;70767;-78
2022/06/20 11:05:15;;;;;;;4.00;2.80;;;;;;;32.84;26.76;96979.36;109962;1250;67855;-74
2022/06/20 11:08:00;;;;;;;3.50;2.50;;;;;;;32.61;25.93;96969.89;110264;1249;69854;-79
2022/06/20 11:10:43;;;;;;;3.10;2.50;;;;;;;32.83;25.82;96966.48;109818;1247;59705;-73
2022/06/20 11:13:21;;;;;;;2.70;2.50;;;;;;;32.89;25.82;96966.71;110042;1249;59685;-78
2022/06/20 11:15:57;;;;;;;3.10;2.80;;;;;;;33.08;26.09;96961.94;110189;1247;71257;-78
2022/06/20 11:18:35;;;;;;;3.80;3.30;;;;;;;32.81;26.02;96964.23;110055;1250;68545;-77
2022/06/20 11:21:16;;;;;;;2.80;2.60;;;;;;;32.27;26.36;96960.59;109984;1249;69494;-73
2022/06/20 11:24:04;;;;;;;3.50;2.50;;;;;;;32.37;27.14;96957.79;110186;1247;59642;-79
2022/06/20 11:26:54;;;;;;;3.80;2.60;;;;;;;32.52;27.30;96954.80;110035;1250;59665;-76
2022/06/20 11:29:44;;;;;;;3.30;3.00;;;;;;;32.52;26.94;96951.19;110176;1249;72198;-77
2022/06/20 11:32:22;;;;;;;2.50;2.20;;;;;;;32.80;27.06;96937.98;110126;1247;67846;-76
2022/06/20 11:35:22;;;;;;;2.90;2.30;;;;;;;32.94;26.07;96935.90;109878;1250;69463;-71
2022/06/20 11:38:21;;;;;;;3.50;2.70;;;;;;;33.08;26.60;96931.06;110048;1250;59754;-76
2022/06/20 11:41:16;;;;;;;3.90;2.40;;;;;;;33.40;26.03;96926.27;109919;1250;59753;-78
2022/06/20 11:44:17;;;;;;;3.50;2.60;;;;;;;32.66;25.18;96925.84;109870;1250;71487;-77
2022/06/20 11:47:04;;;;;;;3.80;2.80;;;;;;;32.47;25.49;96918.52;110072;1249;68662;-76
2022/06/20 11:49:33;;;;;;;4.30;2.60;;;;;;;32.46;26.16;96915.12;109897;1250;69564;-74
2022/06/20 11:52:20;;;;;;;;;;;;;;;32.51;26.82;96914.34;109912;1250;59752;-78
2022/06/20 11:55:31;;;;;;;3.00;2.40;;;;;;;32.90;25.67;96913.14;110061;1249;59702;-76
2022/06/20 11:58:12;;;;;;;2.70;2.50;;;;;;;32.84;25.09;96915.44;109575;1256;72242;-77
2022/06/20 12:00:51;;;;;;;2.40;2.10;;;;;;;33.13;26.65;96912.24;109558;1255;68808;-76
2022/06/20 12:03:39;;;;;;;2.70;2.50;;;;;;;33.29;27.32;96910.86;109613;1255;69528;-75
2022/06/20 12:06:21;;;;;;;;;;;;;;;33.31;25.46;96908.80;109495;1256;59717;-78
2022/06/20 12:09:09;;;;;;;4.50;2.50;;;;;;;33.28;25.81;96900.39;109406;1256;59864;-75
2022/06/20 12:11:56;;;;;;;2.70;2.10;;;;;;;33.45;24.59;96898.77;109416;1256;70080;-79
2022/06/20 12:15:12;;;;;;;2.90;2.40;;;;;;;33.45;25.28;96898.70;109564;1256;67694;-75
2022/06/20 12:17:48;;;;;;;2.90;2.20;;;;;;;33.57;24.22;96887.77;109531;1254;69926;-78
2022/06/20 12:23:29;;;;;;;3.70;2.60;;;;;;;33.49;24.60;96875.51;109531;1255;59798;-76
2022/06/20 12:26:10;;;;;;;3.60;2.70;;;;;;;33.48;25.31;96874.05;109460;1255;69894;-80
2022/06/20 12:28:44;;;;;;;4.10;2.50;;;;;;;33.53;25.25;96871.62;109490;1254;67899;-79
2022/06/20 12:31:24;;;;;;;3.40;2.30;;;;;;;33.21;25.26;96871.80;109495;1256;68643;-76
2022/06/20 12:33:53;;;;;;;3.80;2.20;;;;;;;33.09;25.67;96870.46;110048;1250;59690;-79
2022/06/20 12:36:43;;;;;;;5.20;2.50;;;;;;;33.20;24.99;96868.97;110201;1247;59712;-79
2022/06/20 12:39:35;;;;;;;3.70;2.40;;;;;;;32.74;25.70;96863.93;110259;1247;71716;-75
2022/06/20 12:42:22;;;;;;;2.60;2.40;;;;;;;32.54;25.45;96860.94;110209;1247;68818;-77
2022/06/20 12:44:57;;;;;;;2.70;2.20;;;;;;;32.08;26.20;96861.46;110266;1247;69828;-68